sensor_id;sensor_type;location;lat;lon;timestamp;P1;durP1;ratioP1;P2;durP2;ratioP2
24335;SDS011;33098;52.400;16.880;2022-10-04T00:01:23;7.20;;;1.80;;
24335;SDS011;33098;52.400;16.880;2022-10-04T00:04:00;11.90;;;3.00;;
24335;SDS011;33098;52.400;16.880;2022-10-04T00:06:48;6.90;;;2.00;;
24335;SDS011;33098;52.400;16.880;2022-10-04T00:09:47;9.80;;;2.20;;
24335;SDS011;33098;52.400;16.880;2022-10-04T00:12:21;9.00;;;2.30;;
24335;SDS011;33098;52.400;16.880;2022-10-04T00:14:54;7.90;;;1.90;;
24335;SDS011;33098;52.400;16.880;2022-10-04T00:17:29;9.10;;;2.10;;
24335;SDS011;33098;52.400;16.880;2022-10-04T00:20:01;6.20;;;1.90;;
24335;SDS011;33098;52.400;16.880;2022-10-04T00:22:31;9.10;;;2.30;;
24335;SDS011;33098;52.400;16.880;2022-10-04T00:27:35;6.20;;;2.10;;
24335;SDS011;33098;52.400;16.880;2022-10-04T00:33:00;8.00;;;2.20;;
24335;SDS011;33098;52.400;16.880;2022-10-04T00:40:45;7.90;;;1.90;;
24335;SDS011;33098;52.400;16.880;2022-10-04T00:46:21;8.30;;;2.10;;
24335;SDS011;33098;52.400;16.880;2022-10-04T00:48:55;7.40;;;1.70;;
24335;SDS011;33098;52.400;16.880;2022-10-04T00:51:31;6.50;;;1.90;;
24335;SDS011;33098;52.400;16.880;2022-10-04T00:59:45;9.10;;;1.90;;
24335;SDS011;33098;52.400;16.880;2022-10-04T01:02:22;9.50;;;2.00;;
24335;SDS011;33098;52.400;16.880;2022-10-04T01:08:09;9.20;;;2.20;;
24335;SDS011;33098;52.400;16.880;2022-10-04T01:13:19;10.20;;;2.30;;
24335;SDS011;33098;52.400;16.880;2022-10-04T01:16:10;11.00;;;2.40;;
24335;SDS011;33098;52.400;16.880;2022-10-04T01:18:39;9.90;;;2.00;;
24335;SDS011;33098;52.400;16.880;2022-10-04T01:23:46;8.00;;;2.00;;
24335;SDS011;33098;52.400;16.880;2022-10-04T01:28:58;9.70;;;1.70;;
24335;SDS011;33098;52.400;16.880;2022-10-04T01:31:26;10.10;;;2.20;;
24335;SDS011;33098;52.400;16.880;2022-10-04T01:33:54;9.10;;;2.00;;
24335;SDS011;33098;52.400;16.880;2022-10-04T01:36:21;8.80;;;2.00;;
24335;SDS011;33098;52.400;16.880;2022-10-04T01:38:48;8.80;;;2.00;;
24335;SDS011;33098;52.400;16.880;2022-10-04T01:41:16;9.80;;;2.20;;
24335;SDS011;33098;52.400;16.880;2022-10-04T01:43:51;8.00;;;2.10;;
24335;SDS011;33098;52.400;16.880;2022-10-04T01:46:42;8.50;;;2.10;;
24335;SDS011;33098;52.400;16.880;2022-10-04T01:49:11;7.60;;;2.20;;
24335;SDS011;33098;52.400;16.880;2022-10-04T01:51:46;7.90;;;1.90;;
24335;SDS011;33098;52.400;16.880;2022-10-04T01:54:20;10.10;;;2.00;;
24335;SDS011;33098;52.400;16.880;2022-10-04T01:56:58;6.70;;;1.90;;
24335;SDS011;33098;52.400;16.880;2022-10-04T01:59:30;9.20;;;2.30;;
24335;SDS011;33098;52.400;16.880;2022-10-04T02:02:24;6.80;;;2.00;;
24335;SDS011;33098;52.400;16.880;2022-10-04T02:04:58;7.80;;;2.40;;
24335;SDS011;33098;52.400;16.880;2022-10-04T02:07:28;6.60;;;2.00;;
24335;SDS011;33098;52.400;16.880;2022-10-04T02:09:59;9.50;;;2.20;;
24335;SDS011;33098;52.400;16.880;2022-10-04T02:12:29;9.00;;;2.20;;
24335;SDS011;33098;52.400;16.880;2022-10-04T02:14:59;7.50;;;2.30;;
24335;SDS011;33098;52.400;16.880;2022-10-04T02:17:28;12.70;;;2.40;;
24335;SDS011;33098;52.400;16.880;2022-10-04T02:19:59;9.50;;;2.30;;
24335;SDS011;33098;52.400;16.880;2022-10-04T02:22:27;8.50;;;2.30;;
24335;SDS011;33098;52.400;16.880;2022-10-04T02:24:54;13.10;;;2.40;;
24335;SDS011;33098;52.400;16.880;2022-10-04T02:27:26;9.90;;;2.40;;
24335;SDS011;33098;52.400;16.880;2022-10-04T02:30:05;7.60;;;2.60;;
24335;SDS011;33098;52.400;16.880;2022-10-04T02:32:34;8.80;;;2.10;;
24335;SDS011;33098;52.400;16.880;2022-10-04T02:35:21;7.30;;;2.10;;
24335;SDS011;33098;52.400;16.880;2022-10-04T02:38:38;6.90;;;2.20;;
24335;SDS011;33098;52.400;16.880;2022-10-04T02:40:56;8.40;;;2.30;;
24335;SDS011;33098;52.400;16.880;2022-10-04T02:43:35;8.90;;;2.10;;
24335;SDS011;33098;52.400;16.880;2022-10-04T02:46:22;11.50;;;2.00;;
24335;SDS011;33098;52.400;16.880;2022-10-04T02:49:00;7.70;;;1.90;;
24335;SDS011;33098;52.400;16.880;2022-10-04T02:56:33;7.90;;;2.10;;
24335;SDS011;33098;52.400;16.880;2022-10-04T02:59:02;7.80;;;2.00;;
24335;SDS011;33098;52.400;16.880;2022-10-04T03:04:46;10.60;;;2.20;;
24335;SDS011;33098;52.400;16.880;2022-10-04T03:07:15;9.50;;;2.00;;
24335;SDS011;33098;52.400;16.880;2022-10-04T03:09:42;9.00;;;2.30;;
24335;SDS011;33098;52.400;16.880;2022-10-04T03:12:09;10.00;;;1.90;;
24335;SDS011;33098;52.400;16.880;2022-10-04T03:14:38;9.80;;;2.20;;
24335;SDS011;33098;52.400;16.880;2022-10-04T03:17:05;8.80;;;2.10;;
24335;SDS011;33098;52.400;16.880;2022-10-04T03:19:33;8.20;;;2.60;;
24335;SDS011;33098;52.400;16.880;2022-10-04T03:22:02;6.00;;;1.80;;
24335;SDS011;33098;52.400;16.880;2022-10-04T03:24:35;8.50;;;2.10;;
24335;SDS011;33098;52.400;16.880;2022-10-04T03:27:06;9.70;;;2.40;;
24335;SDS011;33098;52.400;16.880;2022-10-04T03:29:35;8.80;;;2.20;;
24335;SDS011;33098;52.400;16.880;2022-10-04T03:32:08;8.80;;;2.30;;
24335;SDS011;33098;52.400;16.880;2022-10-04T03:34:39;9.40;;;2.40;;
24335;SDS011;33098;52.400;16.880;2022-10-04T03:37:11;8.10;;;2.40;;
24335;SDS011;33098;52.400;16.880;2022-10-04T03:39:45;11.40;;;2.40;;
24335;SDS011;33098;52.400;16.880;2022-10-04T03:42:21;10.30;;;2.40;;
24335;SDS011;33098;52.400;16.880;2022-10-04T03:44:52;11.70;;;2.10;;
24335;SDS011;33098;52.400;16.880;2022-10-04T03:47:25;7.20;;;2.10;;
24335;SDS011;33098;52.400;16.880;2022-10-04T03:49:54;8.20;;;2.60;;
24335;SDS011;33098;52.400;16.880;2022-10-04T03:52:27;7.10;;;2.10;;
24335;SDS011;33098;52.400;16.880;2022-10-04T03:55:00;9.30;;;2.40;;
24335;SDS011;33098;52.400;16.880;2022-10-04T03:57:30;11.90;;;2.40;;
24335;SDS011;33098;52.400;16.880;2022-10-04T03:59:58;9.90;;;2.50;;
24335;SDS011;33098;52.400;16.880;2022-10-04T04:02:47;8.20;;;1.80;;
24335;SDS011;33098;52.400;16.880;2022-10-04T04:10:34;11.20;;;2.60;;
24335;SDS011;33098;52.400;16.880;2022-10-04T04:15:54;9.90;;;2.50;;
24335;SDS011;33098;52.400;16.880;2022-10-04T04:18:22;10.20;;;2.90;;
24335;SDS011;33098;52.400;16.880;2022-10-04T04:20:51;13.80;;;3.00;;
24335;SDS011;33098;52.400;16.880;2022-10-04T04:23:34;10.70;;;2.70;;
24335;SDS011;33098;52.400;16.880;2022-10-04T04:28:49;9.40;;;2.70;;
24335;SDS011;33098;52.400;16.880;2022-10-04T04:36:27;7.80;;;2.80;;
24335;SDS011;33098;52.400;16.880;2022-10-04T04:39:11;12.80;;;3.70;;
24335;SDS011;33098;52.400;16.880;2022-10-04T04:42:04;10.30;;;2.90;;
24335;SDS011;33098;52.400;16.880;2022-10-04T04:44:47;12.90;;;3.30;;
24335;SDS011;33098;52.400;16.880;2022-10-04T04:50:06;10.20;;;2.90;;
24335;SDS011;33098;52.400;16.880;2022-10-04T04:52:33;11.80;;;3.00;;
24335;SDS011;33098;52.400;16.880;2022-10-04T04:55:01;8.80;;;3.30;;
24335;SDS011;33098;52.400;16.880;2022-10-04T04:57:30;9.50;;;3.00;;
24335;SDS011;33098;52.400;16.880;2022-10-04T04:59:58;14.00;;;3.30;;
24335;SDS011;33098;52.400;16.880;2022-10-04T05:02:32;9.40;;;3.10;;
24335;SDS011;33098;52.400;16.880;2022-10-04T05:05:14;9.00;;;3.30;;
24335;SDS011;33098;52.400;16.880;2022-10-04T05:07:41;11.50;;;3.30;;
24335;SDS011;33098;52.400;16.880;2022-10-04T05:12:58;8.90;;;3.40;;
24335;SDS011;33098;52.400;16.880;2022-10-04T05:15:27;9.70;;;3.40;;
24335;SDS011;33098;52.400;16.880;2022-10-04T05:17:59;7.50;;;3.00;;
24335;SDS011;33098;52.400;16.880;2022-10-04T05:20:27;9.30;;;3.40;;
24335;SDS011;33098;52.400;16.880;2022-10-04T05:22:56;9.00;;;3.50;;
24335;SDS011;33098;52.400;16.880;2022-10-04T05:25:25;8.00;;;3.40;;
24335;SDS011;33098;52.400;16.880;2022-10-04T05:28:01;8.20;;;3.50;;
24335;SDS011;33098;52.400;16.880;2022-10-04T05:33:08;12.70;;;3.70;;
24335;SDS011;33098;52.400;16.880;2022-10-04T05:41:10;10.50;;;3.60;;
24335;SDS011;33098;52.400;16.880;2022-10-04T05:43:46;8.60;;;3.70;;
24335;SDS011;33098;52.400;16.880;2022-10-04T05:48:45;12.50;;;3.80;;
24335;SDS011;33098;52.400;16.880;2022-10-04T05:51:17;9.70;;;3.70;;
24335;SDS011;33098;52.400;16.880;2022-10-04T05:53:49;10.60;;;3.70;;
24335;SDS011;33098;52.400;16.880;2022-10-04T05:56:20;10.60;;;3.80;;
24335;SDS011;33098;52.400;16.880;2022-10-04T06:04:31;13.30;;;4.10;;
24335;SDS011;33098;52.400;16.880;2022-10-04T06:07:39;10.60;;;3.70;;
24335;SDS011;33098;52.400;16.880;2022-10-04T06:16:10;9.10;;;3.90;;
24335;SDS011;33098;52.400;16.880;2022-10-04T06:21:26;9.40;;;3.10;;
24335;SDS011;33098;52.400;16.880;2022-10-04T06:26:34;10.70;;;3.40;;
24335;SDS011;33098;52.400;16.880;2022-10-04T06:29:10;8.40;;;3.10;;
24335;SDS011;33098;52.400;16.880;2022-10-04T06:34:44;8.90;;;3.40;;
24335;SDS011;33098;52.400;16.880;2022-10-04T06:37:21;8.70;;;3.20;;
24335;SDS011;33098;52.400;16.880;2022-10-04T06:48:26;11.20;;;3.50;;
24335;SDS011;33098;52.400;16.880;2022-10-04T06:51:06;11.00;;;3.20;;
24335;SDS011;33098;52.400;16.880;2022-10-04T06:53:45;12.70;;;3.60;;
24335;SDS011;33098;52.400;16.880;2022-10-04T06:56:36;12.20;;;3.40;;
24335;SDS011;33098;52.400;16.880;2022-10-04T07:01:47;12.10;;;3.50;;
24335;SDS011;33098;52.400;16.880;2022-10-04T07:07:10;10.70;;;3.70;;
24335;SDS011;33098;52.400;16.880;2022-10-04T07:12:47;11.70;;;3.40;;
24335;SDS011;33098;52.400;16.880;2022-10-04T07:15:54;10.60;;;3.60;;
24335;SDS011;33098;52.400;16.880;2022-10-04T07:18:38;12.20;;;4.00;;
24335;SDS011;33098;52.400;16.880;2022-10-04T07:21:21;9.10;;;3.10;;
24335;SDS011;33098;52.400;16.880;2022-10-04T07:23:55;6.20;;;2.80;;
24335;SDS011;33098;52.400;16.880;2022-10-04T07:26:32;8.70;;;2.90;;
24335;SDS011;33098;52.400;16.880;2022-10-04T07:29:02;6.40;;;2.80;;
24335;SDS011;33098;52.400;16.880;2022-10-04T07:34:51;9.50;;;3.10;;
24335;SDS011;33098;52.400;16.880;2022-10-04T07:37:26;9.00;;;2.90;;
24335;SDS011;33098;52.400;16.880;2022-10-04T07:39:59;9.10;;;2.90;;
24335;SDS011;33098;52.400;16.880;2022-10-04T07:45:18;6.70;;;2.70;;
24335;SDS011;33098;52.400;16.880;2022-10-04T07:47:48;8.80;;;2.90;;
24335;SDS011;33098;52.400;16.880;2022-10-04T07:50:18;10.50;;;3.10;;
24335;SDS011;33098;52.400;16.880;2022-10-04T07:55:46;10.90;;;2.50;;
24335;SDS011;33098;52.400;16.880;2022-10-04T07:58:24;8.20;;;2.60;;
24335;SDS011;33098;52.400;16.880;2022-10-04T08:01:39;7.70;;;3.10;;
24335;SDS011;33098;52.400;16.880;2022-10-04T08:06:57;7.20;;;3.00;;
24335;SDS011;33098;52.400;16.880;2022-10-04T08:17:43;8.30;;;2.90;;
24335;SDS011;33098;52.400;16.880;2022-10-04T08:28:57;6.20;;;2.70;;
24335;SDS011;33098;52.400;16.880;2022-10-04T08:32:11;6.20;;;2.40;;
24335;SDS011;33098;52.400;16.880;2022-10-04T08:34:54;9.30;;;3.10;;
24335;SDS011;33098;52.400;16.880;2022-10-04T08:40:20;9.60;;;2.60;;
24335;SDS011;33098;52.400;16.880;2022-10-04T08:51:37;5.60;;;2.10;;
24335;SDS011;33098;52.400;16.880;2022-10-04T09:03:35;4.90;;;2.00;;
24335;SDS011;33098;52.400;16.880;2022-10-04T09:06:36;10.00;;;2.10;;
24335;SDS011;33098;52.400;16.880;2022-10-04T09:15:33;5.40;;;1.80;;
24335;SDS011;33098;52.400;16.880;2022-10-04T09:18:16;6.10;;;2.10;;
24335;SDS011;33098;52.400;16.880;2022-10-04T09:38:33;4.30;;;1.90;;
24335;SDS011;33098;52.400;16.880;2022-10-04T09:47:26;4.80;;;1.70;;
24335;SDS011;33098;52.400;16.880;2022-10-04T09:59:06;6.50;;;1.70;;
24335;SDS011;33098;52.400;16.880;2022-10-04T10:01:40;5.10;;;1.70;;
24335;SDS011;33098;52.400;16.880;2022-10-04T10:13:40;5.80;;;2.00;;
24335;SDS011;33098;52.400;16.880;2022-10-04T10:16:47;7.50;;;2.10;;
24335;SDS011;33098;52.400;16.880;2022-10-04T10:32:31;3.90;;;1.80;;
24335;SDS011;33098;52.400;16.880;2022-10-04T10:43:29;3.60;;;1.30;;
24335;SDS011;33098;52.400;16.880;2022-10-04T10:54:57;3.80;;;1.70;;
24335;SDS011;33098;52.400;16.880;2022-10-04T11:12:01;3.40;;;1.20;;
24335;SDS011;33098;52.400;16.880;2022-10-04T11:55:06;3.90;;;1.40;;
24335;SDS011;33098;52.400;16.880;2022-10-04T11:57:47;3.90;;;1.40;;
24335;SDS011;33098;52.400;16.880;2022-10-04T12:00:19;3.40;;;1.50;;
24335;SDS011;33098;52.400;16.880;2022-10-04T12:11:07;4.50;;;1.30;;
24335;SDS011;33098;52.400;16.880;2022-10-04T12:13:42;3.50;;;1.20;;
24335;SDS011;33098;52.400;16.880;2022-10-04T12:16:36;2.40;;;1.10;;
24335;SDS011;33098;52.400;16.880;2022-10-04T12:19:24;4.20;;;1.50;;
24335;SDS011;33098;52.400;16.880;2022-10-04T12:31:22;4.60;;;1.30;;
24335;SDS011;33098;52.400;16.880;2022-10-04T12:39:51;2.60;;;1.30;;
24335;SDS011;33098;52.400;16.880;2022-10-04T12:48:07;8.10;;;1.60;;
24335;SDS011;33098;52.400;16.880;2022-10-04T12:50:51;3.70;;;1.30;;
24335;SDS011;33098;52.400;16.880;2022-10-04T13:01:31;3.80;;;1.10;;
24335;SDS011;33098;52.400;16.880;2022-10-04T13:04:12;3.10;;;1.50;;
24335;SDS011;33098;52.400;16.880;2022-10-04T13:12:32;3.30;;;1.70;;
24335;SDS011;33098;52.400;16.880;2022-10-04T13:18:12;4.60;;;1.40;;
24335;SDS011;33098;52.400;16.880;2022-10-04T13:20:59;4.50;;;1.40;;
24335;SDS011;33098;52.400;16.880;2022-10-04T13:29:13;3.90;;;1.30;;
24335;SDS011;33098;52.400;16.880;2022-10-04T13:31:57;2.40;;;1.10;;
24335;SDS011;33098;52.400;16.880;2022-10-04T13:45:51;2.20;;;1.30;;
24335;SDS011;33098;52.400;16.880;2022-10-04T13:48:32;3.10;;;1.30;;
24335;SDS011;33098;52.400;16.880;2022-10-04T13:51:18;2.90;;;1.20;;
24335;SDS011;33098;52.400;16.880;2022-10-04T13:59:33;5.10;;;1.20;;
24335;SDS011;33098;52.400;16.880;2022-10-04T14:02:17;4.60;;;1.60;;
24335;SDS011;33098;52.400;16.880;2022-10-04T14:05:02;4.10;;;1.10;;
24335;SDS011;33098;52.400;16.880;2022-10-04T14:08:14;5.70;;;1.40;;
24335;SDS011;33098;52.400;16.880;2022-10-04T14:11:00;3.70;;;1.50;;
24335;SDS011;33098;52.400;16.880;2022-10-04T14:26:06;4.60;;;1.20;;
24335;SDS011;33098;52.400;16.880;2022-10-04T14:34:43;4.00;;;1.20;;
24335;SDS011;33098;52.400;16.880;2022-10-04T14:48:45;3.10;;;1.40;;
24335;SDS011;33098;52.400;16.880;2022-10-04T14:56:59;4.40;;;1.20;;
24335;SDS011;33098;52.400;16.880;2022-10-04T15:00:03;2.60;;;1.20;;
24335;SDS011;33098;52.400;16.880;2022-10-04T15:07:34;3.60;;;1.20;;
24335;SDS011;33098;52.400;16.880;2022-10-04T15:10:26;4.00;;;1.30;;
24335;SDS011;33098;52.400;16.880;2022-10-04T15:15:34;3.00;;;1.40;;
24335;SDS011;33098;52.400;16.880;2022-10-04T15:18:23;2.50;;;1.20;;
24335;SDS011;33098;52.400;16.880;2022-10-04T15:20:57;3.20;;;1.30;;
24335;SDS011;33098;52.400;16.880;2022-10-04T15:23:32;4.30;;;1.10;;
24335;SDS011;33098;52.400;16.880;2022-10-04T15:26:05;3.70;;;1.50;;
24335;SDS011;33098;52.400;16.880;2022-10-04T15:28:56;3.40;;;1.20;;
24335;SDS011;33098;52.400;16.880;2022-10-04T15:31:33;3.40;;;1.40;;
24335;SDS011;33098;52.400;16.880;2022-10-04T15:42:35;3.90;;;1.40;;
24335;SDS011;33098;52.400;16.880;2022-10-04T15:48:09;6.10;;;1.70;;
24335;SDS011;33098;52.400;16.880;2022-10-04T16:08:03;3.40;;;1.50;;
24335;SDS011;33098;52.400;16.880;2022-10-04T16:29:15;5.60;;;1.80;;
24335;SDS011;33098;52.400;16.880;2022-10-04T16:36:55;6.20;;;2.00;;
24335;SDS011;33098;52.400;16.880;2022-10-04T16:39:31;5.40;;;2.00;;
24335;SDS011;33098;52.400;16.880;2022-10-04T16:51:04;6.30;;;2.60;;
24335;SDS011;33098;52.400;16.880;2022-10-04T16:53:57;5.30;;;2.20;;
24335;SDS011;33098;52.400;16.880;2022-10-04T16:56:29;6.30;;;2.90;;
24335;SDS011;33098;52.400;16.880;2022-10-04T16:59:00;7.00;;;2.50;;
24335;SDS011;33098;52.400;16.880;2022-10-04T17:06:50;7.40;;;2.90;;
24335;SDS011;33098;52.400;16.880;2022-10-04T17:09:30;10.70;;;3.30;;
24335;SDS011;33098;52.400;16.880;2022-10-04T17:12:18;7.10;;;3.70;;
24335;SDS011;33098;52.400;16.880;2022-10-04T17:20:36;9.80;;;4.60;;
24335;SDS011;33098;52.400;16.880;2022-10-04T17:26:41;10.10;;;5.10;;
24335;SDS011;33098;52.400;16.880;2022-10-04T17:29:25;8.20;;;5.10;;
24335;SDS011;33098;52.400;16.880;2022-10-04T17:38:08;12.80;;;6.80;;
24335;SDS011;33098;52.400;16.880;2022-10-04T17:48:59;23.80;;;9.50;;
24335;SDS011;33098;52.400;16.880;2022-10-04T17:51:53;18.00;;;8.90;;
24335;SDS011;33098;52.400;16.880;2022-10-04T17:54:47;17.60;;;8.90;;
24335;SDS011;33098;52.400;16.880;2022-10-04T17:57:41;17.40;;;9.40;;
24335;SDS011;33098;52.400;16.880;2022-10-04T18:00:20;18.40;;;9.30;;
24335;SDS011;33098;52.400;16.880;2022-10-04T18:03:00;18.10;;;10.00;;
24335;SDS011;33098;52.400;16.880;2022-10-04T18:10:58;20.10;;;10.90;;
24335;SDS011;33098;52.400;16.880;2022-10-04T18:16:30;21.60;;;11.50;;
24335;SDS011;33098;52.400;16.880;2022-10-04T18:22:18;19.60;;;11.50;;
24335;SDS011;33098;52.400;16.880;2022-10-04T18:24:47;23.20;;;12.70;;
24335;SDS011;33098;52.400;16.880;2022-10-04T18:27:28;25.10;;;13.80;;
24335;SDS011;33098;52.400;16.880;2022-10-04T18:30:11;23.10;;;12.90;;
24335;SDS011;33098;52.400;16.880;2022-10-04T18:32:43;22.10;;;11.50;;
24335;SDS011;33098;52.400;16.880;2022-10-04T18:35:28;22.00;;;11.40;;
24335;SDS011;33098;52.400;16.880;2022-10-04T18:41:11;21.60;;;11.30;;
24335;SDS011;33098;52.400;16.880;2022-10-04T18:43:52;26.50;;;12.80;;
24335;SDS011;33098;52.400;16.880;2022-10-04T18:46:40;22.00;;;11.70;;
24335;SDS011;33098;52.400;16.880;2022-10-04T19:00:40;19.10;;;11.20;;
24335;SDS011;33098;52.400;16.880;2022-10-04T19:06:18;25.20;;;12.40;;
24335;SDS011;33098;52.400;16.880;2022-10-04T19:14:33;21.10;;;12.10;;
24335;SDS011;33098;52.400;16.880;2022-10-04T19:17:10;23.00;;;13.20;;
24335;SDS011;33098;52.400;16.880;2022-10-04T19:33:53;24.10;;;13.30;;
24335;SDS011;33098;52.400;16.880;2022-10-04T19:42:27;20.80;;;11.60;;
24335;SDS011;33098;52.400;16.880;2022-10-04T19:47:59;21.50;;;11.30;;
24335;SDS011;33098;52.400;16.880;2022-10-04T19:50:38;19.00;;;11.20;;
24335;SDS011;33098;52.400;16.880;2022-10-04T19:56:14;21.60;;;10.60;;
24335;SDS011;33098;52.400;16.880;2022-10-04T19:58:46;22.40;;;11.10;;
24335;SDS011;33098;52.400;16.880;2022-10-04T20:01:19;20.50;;;10.90;;
24335;SDS011;33098;52.400;16.880;2022-10-04T20:03:51;18.70;;;10.70;;
24335;SDS011;33098;52.400;16.880;2022-10-04T20:06:50;19.40;;;11.10;;
24335;SDS011;33098;52.400;16.880;2022-10-04T20:11:58;20.30;;;10.50;;
24335;SDS011;33098;52.400;16.880;2022-10-04T20:21:55;19.90;;;11.10;;
24335;SDS011;33098;52.400;16.880;2022-10-04T20:24:53;17.90;;;10.80;;
24335;SDS011;33098;52.400;16.880;2022-10-04T20:29:56;17.10;;;11.20;;
24335;SDS011;33098;52.400;16.880;2022-10-04T20:35:03;23.80;;;11.70;;
24335;SDS011;33098;52.400;16.880;2022-10-04T20:43:36;18.90;;;12.00;;
24335;SDS011;33098;52.400;16.880;2022-10-04T20:45:41;20.90;;;12.30;;
24335;SDS011;33098;52.400;16.880;2022-10-04T20:48:21;28.50;;;15.20;;
24335;SDS011;33098;52.400;16.880;2022-10-04T20:50:49;23.60;;;14.60;;
24335;SDS011;33098;52.400;16.880;2022-10-04T20:55:48;24.20;;;13.80;;
24335;SDS011;33098;52.400;16.880;2022-10-04T20:58:32;24.40;;;14.10;;
24335;SDS011;33098;52.400;16.880;2022-10-04T21:04:14;21.60;;;12.40;;
24335;SDS011;33098;52.400;16.880;2022-10-04T21:06:49;23.00;;;12.60;;
24335;SDS011;33098;52.400;16.880;2022-10-04T21:09:19;21.60;;;11.50;;
24335;SDS011;33098;52.400;16.880;2022-10-04T21:11:49;16.90;;;10.60;;
24335;SDS011;33098;52.400;16.880;2022-10-04T21:14:30;15.70;;;10.00;;
24335;SDS011;33098;52.400;16.880;2022-10-04T21:16:59;18.40;;;10.90;;
24335;SDS011;33098;52.400;16.880;2022-10-04T21:22:04;17.70;;;10.50;;
24335;SDS011;33098;52.400;16.880;2022-10-04T21:24:39;16.00;;;9.90;;
24335;SDS011;33098;52.400;16.880;2022-10-04T21:27:08;19.50;;;10.20;;
24335;SDS011;33098;52.400;16.880;2022-10-04T21:29:40;20.40;;;9.50;;
24335;SDS011;33098;52.400;16.880;2022-10-04T21:32:06;19.90;;;9.60;;
24335;SDS011;33098;52.400;16.880;2022-10-04T21:34:33;20.60;;;9.70;;
24335;SDS011;33098;52.400;16.880;2022-10-04T21:37:00;14.40;;;9.20;;
24335;SDS011;33098;52.400;16.880;2022-10-04T21:39:29;15.90;;;9.10;;
24335;SDS011;33098;52.400;16.880;2022-10-04T21:41:56;16.50;;;9.20;;
24335;SDS011;33098;52.400;16.880;2022-10-04T21:44:25;17.00;;;9.10;;
24335;SDS011;33098;52.400;16.880;2022-10-04T21:46:52;21.30;;;9.50;;
24335;SDS011;33098;52.400;16.880;2022-10-04T21:49:21;14.70;;;8.90;;
24335;SDS011;33098;52.400;16.880;2022-10-04T21:51:48;17.00;;;9.30;;
24335;SDS011;33098;52.400;16.880;2022-10-04T21:54:15;16.50;;;9.20;;
24335;SDS011;33098;52.400;16.880;2022-10-04T21:56:42;15.70;;;9.40;;
24335;SDS011;33098;52.400;16.880;2022-10-04T21:59:08;15.70;;;8.60;;
24335;SDS011;33098;52.400;16.880;2022-10-04T22:01:37;16.00;;;9.20;;
24335;SDS011;33098;52.400;16.880;2022-10-04T22:04:11;16.70;;;8.80;;
24335;SDS011;33098;52.400;16.880;2022-10-04T22:06:38;17.40;;;10.20;;
24335;SDS011;33098;52.400;16.880;2022-10-04T22:09:05;17.40;;;10.30;;
24335;SDS011;33098;52.400;16.880;2022-10-04T22:11:32;17.50;;;11.30;;
24335;SDS011;33098;52.400;16.880;2022-10-04T22:13:59;22.90;;;11.70;;
24335;SDS011;33098;52.400;16.880;2022-10-04T22:16:25;19.30;;;11.30;;
24335;SDS011;33098;52.400;16.880;2022-10-04T22:18:53;19.00;;;10.70;;
24335;SDS011;33098;52.400;16.880;2022-10-04T22:21:20;19.60;;;11.60;;
24335;SDS011;33098;52.400;16.880;2022-10-04T22:23:47;20.80;;;11.70;;
24335;SDS011;33098;52.400;16.880;2022-10-04T22:26:21;20.70;;;12.70;;
24335;SDS011;33098;52.400;16.880;2022-10-04T22:28:52;24.90;;;13.50;;
24335;SDS011;33098;52.400;16.880;2022-10-04T22:31:21;23.80;;;14.20;;
24335;SDS011;33098;52.400;16.880;2022-10-04T22:33:51;23.80;;;14.60;;
24335;SDS011;33098;52.400;16.880;2022-10-04T22:36:20;28.40;;;17.90;;
24335;SDS011;33098;52.400;16.880;2022-10-04T22:41:16;31.00;;;17.90;;
24335;SDS011;33098;52.400;16.880;2022-10-04T22:43:45;31.50;;;19.30;;
24335;SDS011;33098;52.400;16.880;2022-10-04T22:46:17;30.80;;;19.40;;
24335;SDS011;33098;52.400;16.880;2022-10-04T22:48:45;32.90;;;19.20;;
24335;SDS011;33098;52.400;16.880;2022-10-04T22:51:14;30.50;;;18.70;;
24335;SDS011;33098;52.400;16.880;2022-10-04T22:53:42;30.20;;;19.10;;
24335;SDS011;33098;52.400;16.880;2022-10-04T22:56:10;32.80;;;19.30;;
24335;SDS011;33098;52.400;16.880;2022-10-04T22:58:39;32.00;;;19.10;;
24335;SDS011;33098;52.400;16.880;2022-10-04T23:01:24;33.70;;;19.00;;
24335;SDS011;33098;52.400;16.880;2022-10-04T23:03:55;32.70;;;19.80;;
24335;SDS011;33098;52.400;16.880;2022-10-04T23:06:23;34.90;;;20.50;;
24335;SDS011;33098;52.400;16.880;2022-10-04T23:08:50;33.20;;;19.80;;
24335;SDS011;33098;52.400;16.880;2022-10-04T23:11:16;35.30;;;21.40;;
24335;SDS011;33098;52.400;16.880;2022-10-04T23:13:46;38.80;;;22.50;;
24335;SDS011;33098;52.400;16.880;2022-10-04T23:16:17;34.00;;;22.30;;
24335;SDS011;33098;52.400;16.880;2022-10-04T23:18:55;36.20;;;21.90;;
24335;SDS011;33098;52.400;16.880;2022-10-04T23:21:26;38.60;;;22.50;;
24335;SDS011;33098;52.400;16.880;2022-10-04T23:24:12;35.50;;;21.60;;
24335;SDS011;33098;52.400;16.880;2022-10-04T23:26:42;35.20;;;21.00;;
24335;SDS011;33098;52.400;16.880;2022-10-04T23:32:25;35.80;;;20.80;;
24335;SDS011;33098;52.400;16.880;2022-10-04T23:34:51;33.40;;;20.50;;
24335;SDS011;33098;52.400;16.880;2022-10-04T23:37:20;29.10;;;20.00;;
24335;SDS011;33098;52.400;16.880;2022-10-04T23:39:50;34.70;;;20.00;;
24335;SDS011;33098;52.400;16.880;2022-10-04T23:42:18;31.10;;;20.20;;
24335;SDS011;33098;52.400;16.880;2022-10-04T23:45:01;32.70;;;19.80;;
24335;SDS011;33098;52.400;16.880;2022-10-04T23:47:39;29.70;;;20.90;;
24335;SDS011;33098;52.400;16.880;2022-10-04T23:52:52;32.50;;;20.30;;
24335;SDS011;33098;52.400;16.880;2022-10-04T23:55:24;33.80;;;20.50;;
24335;SDS011;33098;52.400;16.880;2022-10-04T23:58:00;34.10;;;20.40;;
